sensor_id;sensor_type;location;lat;lon;timestamp;P1;durP1;ratioP1;P2;durP2;ratioP2
35434;SDS011;21556;55.782;37.528;2023-06-14T00:01:59;7.57;;;3.90;;
35434;SDS011;21556;55.782;37.528;2023-06-14T00:04:25;9.68;;;4.20;;
35434;SDS011;21556;55.782;37.528;2023-06-14T00:06:51;6.18;;;4.38;;
35434;SDS011;21556;55.782;37.528;2023-06-14T00:09:18;8.32;;;4.05;;
35434;SDS011;21556;55.782;37.528;2023-06-14T00:11:44;9.45;;;4.60;;
35434;SDS011;21556;55.782;37.528;2023-06-14T00:14:10;7.10;;;4.03;;
35434;SDS011;21556;55.782;37.528;2023-06-14T00:16:36;7.40;;;4.22;;
35434;SDS011;21556;55.782;37.528;2023-06-14T00:19:04;9.57;;;4.70;;
35434;SDS011;21556;55.782;37.528;2023-06-14T00:21:31;14.07;;;4.93;;
35434;SDS011;21556;55.782;37.528;2023-06-14T00:23:58;9.23;;;4.78;;
35434;SDS011;21556;55.782;37.528;2023-06-14T00:26:24;9.75;;;5.18;;
35434;SDS011;21556;55.782;37.528;2023-06-14T00:28:53;9.23;;;4.80;;
35434;SDS011;21556;55.782;37.528;2023-06-14T00:31:20;9.27;;;5.18;;
35434;SDS011;21556;55.782;37.528;2023-06-14T00:33:49;10.77;;;4.88;;
35434;SDS011;21556;55.782;37.528;2023-06-14T00:36:16;8.60;;;4.68;;
35434;SDS011;21556;55.782;37.528;2023-06-14T00:38:42;9.73;;;4.97;;
35434;SDS011;21556;55.782;37.528;2023-06-14T00:41:08;8.25;;;4.47;;
35434;SDS011;21556;55.782;37.528;2023-06-14T00:43:35;9.38;;;4.57;;
35434;SDS011;21556;55.782;37.528;2023-06-14T00:46:01;7.50;;;4.07;;
35434;SDS011;21556;55.782;37.528;2023-06-14T00:50:55;7.93;;;4.55;;
35434;SDS011;21556;55.782;37.528;2023-06-14T00:53:23;10.43;;;4.82;;
35434;SDS011;21556;55.782;37.528;2023-06-14T00:55:50;7.07;;;3.90;;
35434;SDS011;21556;55.782;37.528;2023-06-14T00:58:17;11.57;;;6.07;;
35434;SDS011;21556;55.782;37.528;2023-06-14T01:00:43;10.80;;;4.45;;
35434;SDS011;21556;55.782;37.528;2023-06-14T01:03:10;7.75;;;4.22;;
35434;SDS011;21556;55.782;37.528;2023-06-14T01:11:12;10.38;;;4.50;;
35434;SDS011;21556;55.782;37.528;2023-06-14T01:16:13;9.82;;;5.25;;
35434;SDS011;21556;55.782;37.528;2023-06-14T01:18:39;7.68;;;4.22;;
35434;SDS011;21556;55.782;37.528;2023-06-14T01:21:19;11.45;;;5.10;;
35434;SDS011;21556;55.782;37.528;2023-06-14T01:23:48;8.30;;;4.80;;
35434;SDS011;21556;55.782;37.528;2023-06-14T01:26:19;11.23;;;5.25;;
35434;SDS011;21556;55.782;37.528;2023-06-14T01:28:46;8.17;;;4.60;;
35434;SDS011;21556;55.782;37.528;2023-06-14T01:31:16;7.00;;;4.55;;
35434;SDS011;21556;55.782;37.528;2023-06-14T01:33:44;7.53;;;4.85;;
35434;SDS011;21556;55.782;37.528;2023-06-14T01:36:12;12.90;;;5.18;;
35434;SDS011;21556;55.782;37.528;2023-06-14T01:38:38;13.25;;;5.15;;
35434;SDS011;21556;55.782;37.528;2023-06-14T01:41:05;7.25;;;4.97;;
35434;SDS011;21556;55.782;37.528;2023-06-14T01:43:31;14.13;;;5.28;;
35434;SDS011;21556;55.782;37.528;2023-06-14T01:45:59;20.65;;;6.43;;
35434;SDS011;21556;55.782;37.528;2023-06-14T01:48:27;11.27;;;5.65;;
35434;SDS011;21556;55.782;37.528;2023-06-14T01:50:53;12.88;;;4.90;;
35434;SDS011;21556;55.782;37.528;2023-06-14T01:53:20;10.27;;;4.93;;
35434;SDS011;21556;55.782;37.528;2023-06-14T01:55:46;9.30;;;4.65;;
35434;SDS011;21556;55.782;37.528;2023-06-14T01:58:14;8.13;;;5.00;;
35434;SDS011;21556;55.782;37.528;2023-06-14T02:00:44;11.40;;;6.25;;
35434;SDS011;21556;55.782;37.528;2023-06-14T02:03:11;10.30;;;5.40;;
35434;SDS011;21556;55.782;37.528;2023-06-14T02:05:38;10.52;;;5.05;;
35434;SDS011;21556;55.782;37.528;2023-06-14T02:08:05;10.88;;;5.35;;
35434;SDS011;21556;55.782;37.528;2023-06-14T02:10:33;10.43;;;5.38;;
35434;SDS011;21556;55.782;37.528;2023-06-14T02:12:59;7.70;;;5.40;;
35434;SDS011;21556;55.782;37.528;2023-06-14T02:15:26;9.60;;;5.15;;
35434;SDS011;21556;55.782;37.528;2023-06-14T02:18:00;10.95;;;5.50;;
35434;SDS011;21556;55.782;37.528;2023-06-14T02:20:27;8.68;;;5.22;;
35434;SDS011;21556;55.782;37.528;2023-06-14T02:22:56;8.90;;;5.32;;
35434;SDS011;21556;55.782;37.528;2023-06-14T02:25:22;8.57;;;5.20;;
35434;SDS011;21556;55.782;37.528;2023-06-14T02:27:48;13.95;;;5.68;;
35434;SDS011;21556;55.782;37.528;2023-06-14T02:30:14;11.48;;;5.00;;
35434;SDS011;21556;55.782;37.528;2023-06-14T02:32:41;11.23;;;5.45;;
35434;SDS011;21556;55.782;37.528;2023-06-14T02:35:08;16.23;;;6.47;;
35434;SDS011;21556;55.782;37.528;2023-06-14T02:37:35;12.95;;;6.13;;
35434;SDS011;21556;55.782;37.528;2023-06-14T02:40:01;11.20;;;6.32;;
35434;SDS011;21556;55.782;37.528;2023-06-14T02:42:31;10.50;;;5.50;;
35434;SDS011;21556;55.782;37.528;2023-06-14T02:44:57;14.65;;;6.70;;
35434;SDS011;21556;55.782;37.528;2023-06-14T02:47:23;16.13;;;6.72;;
35434;SDS011;21556;55.782;37.528;2023-06-14T02:49:50;10.77;;;6.03;;
35434;SDS011;21556;55.782;37.528;2023-06-14T02:52:16;11.48;;;6.20;;
35434;SDS011;21556;55.782;37.528;2023-06-14T02:54:43;10.45;;;6.45;;
35434;SDS011;21556;55.782;37.528;2023-06-14T02:57:10;11.68;;;7.07;;
35434;SDS011;21556;55.782;37.528;2023-06-14T02:59:37;15.68;;;7.13;;
35434;SDS011;21556;55.782;37.528;2023-06-14T03:02:04;9.55;;;6.28;;
35434;SDS011;21556;55.782;37.528;2023-06-14T03:04:33;14.13;;;6.63;;
35434;SDS011;21556;55.782;37.528;2023-06-14T03:07:05;13.30;;;6.82;;
35434;SDS011;21556;55.782;37.528;2023-06-14T03:09:40;10.32;;;6.82;;
35434;SDS011;21556;55.782;37.528;2023-06-14T03:12:09;10.50;;;6.95;;
35434;SDS011;21556;55.782;37.528;2023-06-14T03:14:35;9.50;;;6.38;;
35434;SDS011;21556;55.782;37.528;2023-06-14T03:17:02;15.15;;;6.45;;
35434;SDS011;21556;55.782;37.528;2023-06-14T03:19:30;10.40;;;7.35;;
35434;SDS011;21556;55.782;37.528;2023-06-14T03:21:57;13.57;;;6.82;;
35434;SDS011;21556;55.782;37.528;2023-06-14T03:24:25;10.55;;;6.55;;
35434;SDS011;21556;55.782;37.528;2023-06-14T03:26:56;13.02;;;6.60;;
35434;SDS011;21556;55.782;37.528;2023-06-14T03:29:24;13.20;;;6.85;;
35434;SDS011;21556;55.782;37.528;2023-06-14T03:31:58;11.98;;;7.25;;
35434;SDS011;21556;55.782;37.528;2023-06-14T03:34:32;12.73;;;6.28;;
35434;SDS011;21556;55.782;37.528;2023-06-14T03:36:58;13.52;;;7.22;;
35434;SDS011;21556;55.782;37.528;2023-06-14T03:39:24;10.45;;;6.43;;
35434;SDS011;21556;55.782;37.528;2023-06-14T03:41:50;12.30;;;6.55;;
35434;SDS011;21556;55.782;37.528;2023-06-14T03:44:17;9.38;;;6.10;;
35434;SDS011;21556;55.782;37.528;2023-06-14T03:46:45;17.90;;;6.90;;
35434;SDS011;21556;55.782;37.528;2023-06-14T03:49:12;13.85;;;6.80;;
35434;SDS011;21556;55.782;37.528;2023-06-14T03:51:41;11.88;;;6.40;;
35434;SDS011;21556;55.782;37.528;2023-06-14T03:54:07;14.52;;;6.38;;
35434;SDS011;21556;55.782;37.528;2023-06-14T03:56:35;11.82;;;7.25;;
35434;SDS011;21556;55.782;37.528;2023-06-14T03:59:01;11.13;;;6.28;;
35434;SDS011;21556;55.782;37.528;2023-06-14T04:01:29;10.55;;;6.50;;
35434;SDS011;21556;55.782;37.528;2023-06-14T04:03:58;10.20;;;6.53;;
35434;SDS011;21556;55.782;37.528;2023-06-14T04:06:25;9.32;;;6.25;;
35434;SDS011;21556;55.782;37.528;2023-06-14T04:08:59;12.75;;;6.00;;
35434;SDS011;21556;55.782;37.528;2023-06-14T04:11:29;10.02;;;6.43;;
35434;SDS011;21556;55.782;37.528;2023-06-14T04:13:58;10.90;;;6.15;;
35434;SDS011;21556;55.782;37.528;2023-06-14T04:16:25;9.70;;;6.15;;
35434;SDS011;21556;55.782;37.528;2023-06-14T04:18:53;9.05;;;6.40;;
35434;SDS011;21556;55.782;37.528;2023-06-14T04:21:22;7.25;;;5.80;;
35434;SDS011;21556;55.782;37.528;2023-06-14T04:23:53;13.20;;;6.57;;
35434;SDS011;21556;55.782;37.528;2023-06-14T04:26:24;9.93;;;6.28;;
35434;SDS011;21556;55.782;37.528;2023-06-14T04:28:56;8.82;;;5.45;;
35434;SDS011;21556;55.782;37.528;2023-06-14T04:31:28;9.82;;;5.82;;
35434;SDS011;21556;55.782;37.528;2023-06-14T04:34:00;9.70;;;5.85;;
35434;SDS011;21556;55.782;37.528;2023-06-14T04:36:41;7.82;;;5.35;;
35434;SDS011;21556;55.782;37.528;2023-06-14T04:39:21;9.45;;;5.63;;
35434;SDS011;21556;55.782;37.528;2023-06-14T04:41:48;10.52;;;6.35;;
35434;SDS011;21556;55.782;37.528;2023-06-14T04:44:23;11.18;;;5.38;;
35434;SDS011;21556;55.782;37.528;2023-06-14T04:47:01;9.65;;;6.13;;
35434;SDS011;21556;55.782;37.528;2023-06-14T04:49:30;8.38;;;5.20;;
35434;SDS011;21556;55.782;37.528;2023-06-14T04:51:58;8.00;;;5.20;;
35434;SDS011;21556;55.782;37.528;2023-06-14T04:54:35;10.80;;;5.63;;
35434;SDS011;21556;55.782;37.528;2023-06-14T04:57:07;15.13;;;5.32;;
35434;SDS011;21556;55.782;37.528;2023-06-14T04:59:34;5.15;;;3.88;;
35434;SDS011;21556;55.782;37.528;2023-06-14T05:02:01;11.77;;;5.00;;
35434;SDS011;21556;55.782;37.528;2023-06-14T05:04:33;11.00;;;4.05;;
35434;SDS011;21556;55.782;37.528;2023-06-14T05:07:03;9.13;;;4.72;;
35434;SDS011;21556;55.782;37.528;2023-06-14T05:09:38;9.90;;;4.35;;
35434;SDS011;21556;55.782;37.528;2023-06-14T05:12:05;5.88;;;4.82;;
35434;SDS011;21556;55.782;37.528;2023-06-14T05:14:41;11.63;;;4.45;;
35434;SDS011;21556;55.782;37.528;2023-06-14T05:17:09;6.60;;;4.40;;
35434;SDS011;21556;55.782;37.528;2023-06-14T05:19:39;8.57;;;4.35;;
35434;SDS011;21556;55.782;37.528;2023-06-14T05:22:06;7.40;;;4.28;;
35434;SDS011;21556;55.782;37.528;2023-06-14T05:24:32;8.55;;;4.50;;
35434;SDS011;21556;55.782;37.528;2023-06-14T05:26:58;6.20;;;3.90;;
35434;SDS011;21556;55.782;37.528;2023-06-14T05:29:24;8.90;;;4.13;;
35434;SDS011;21556;55.782;37.528;2023-06-14T05:31:54;9.18;;;4.60;;
35434;SDS011;21556;55.782;37.528;2023-06-14T05:34:20;7.22;;;3.85;;
35434;SDS011;21556;55.782;37.528;2023-06-14T05:36:48;5.15;;;3.88;;
35434;SDS011;21556;55.782;37.528;2023-06-14T05:39:14;8.57;;;4.55;;
35434;SDS011;21556;55.782;37.528;2023-06-14T05:41:40;13.00;;;5.10;;
35434;SDS011;21556;55.782;37.528;2023-06-14T05:44:06;10.23;;;3.70;;
35434;SDS011;21556;55.782;37.528;2023-06-14T05:46:34;7.88;;;3.90;;
35434;SDS011;21556;55.782;37.528;2023-06-14T05:49:00;7.28;;;4.20;;
35434;SDS011;21556;55.782;37.528;2023-06-14T05:51:26;10.23;;;4.72;;
35434;SDS011;21556;55.782;37.528;2023-06-14T05:53:52;8.15;;;3.97;;
35434;SDS011;21556;55.782;37.528;2023-06-14T05:56:18;12.40;;;3.90;;
35434;SDS011;21556;55.782;37.528;2023-06-14T05:58:45;6.93;;;3.95;;
35434;SDS011;21556;55.782;37.528;2023-06-14T06:01:11;9.77;;;3.78;;
35434;SDS011;21556;55.782;37.528;2023-06-14T06:03:38;5.85;;;3.97;;
35434;SDS011;21556;55.782;37.528;2023-06-14T06:06:05;11.38;;;4.32;;
35434;SDS011;21556;55.782;37.528;2023-06-14T06:08:31;9.63;;;3.85;;
35434;SDS011;21556;55.782;37.528;2023-06-14T06:10:57;7.70;;;4.00;;
35434;SDS011;21556;55.782;37.528;2023-06-14T06:13:23;6.30;;;3.38;;
35434;SDS011;21556;55.782;37.528;2023-06-14T06:15:49;6.85;;;3.08;;
35434;SDS011;21556;55.782;37.528;2023-06-14T06:18:16;6.93;;;2.78;;
35434;SDS011;21556;55.782;37.528;2023-06-14T06:20:42;4.70;;;2.35;;
35434;SDS011;21556;55.782;37.528;2023-06-14T06:23:09;3.03;;;2.10;;
35434;SDS011;21556;55.782;37.528;2023-06-14T06:25:35;3.42;;;2.60;;
35434;SDS011;21556;55.782;37.528;2023-06-14T06:28:01;4.85;;;2.70;;
35434;SDS011;21556;55.782;37.528;2023-06-14T06:30:27;5.82;;;2.20;;
35434;SDS011;21556;55.782;37.528;2023-06-14T06:32:53;5.10;;;2.63;;
35434;SDS011;21556;55.782;37.528;2023-06-14T06:35:21;3.28;;;2.67;;
35434;SDS011;21556;55.782;37.528;2023-06-14T06:37:47;6.78;;;2.70;;
35434;SDS011;21556;55.782;37.528;2023-06-14T06:40:13;7.25;;;2.60;;
35434;SDS011;21556;55.782;37.528;2023-06-14T06:42:39;5.20;;;2.40;;
35434;SDS011;21556;55.782;37.528;2023-06-14T06:45:05;6.22;;;2.95;;
35434;SDS011;21556;55.782;37.528;2023-06-14T06:47:34;9.88;;;2.78;;
35434;SDS011;21556;55.782;37.528;2023-06-14T06:50:01;8.68;;;2.40;;
35434;SDS011;21556;55.782;37.528;2023-06-14T06:52:32;4.38;;;2.10;;
35434;SDS011;21556;55.782;37.528;2023-06-14T06:54:58;4.43;;;2.47;;
35434;SDS011;21556;55.782;37.528;2023-06-14T06:57:24;3.03;;;2.30;;
35434;SDS011;21556;55.782;37.528;2023-06-14T06:59:50;3.13;;;2.33;;
35434;SDS011;21556;55.782;37.528;2023-06-14T07:02:16;6.85;;;2.35;;
35434;SDS011;21556;55.782;37.528;2023-06-14T07:04:42;3.45;;;2.58;;
35434;SDS011;21556;55.782;37.528;2023-06-14T07:07:08;6.18;;;2.75;;
35434;SDS011;21556;55.782;37.528;2023-06-14T07:09:37;4.63;;;2.58;;
35434;SDS011;21556;55.782;37.528;2023-06-14T07:12:04;5.85;;;2.42;;
35434;SDS011;21556;55.782;37.528;2023-06-14T07:14:30;5.32;;;2.40;;
35434;SDS011;21556;55.782;37.528;2023-06-14T07:16:56;5.05;;;2.38;;
35434;SDS011;21556;55.782;37.528;2023-06-14T07:19:25;5.80;;;2.20;;
35434;SDS011;21556;55.782;37.528;2023-06-14T07:21:51;3.45;;;2.45;;
35434;SDS011;21556;55.782;37.528;2023-06-14T07:24:19;6.82;;;3.15;;
35434;SDS011;21556;55.782;37.528;2023-06-14T07:26:47;4.70;;;3.00;;
35434;SDS011;21556;55.782;37.528;2023-06-14T07:29:14;3.55;;;2.60;;
35434;SDS011;21556;55.782;37.528;2023-06-14T07:31:42;11.32;;;3.30;;
35434;SDS011;21556;55.782;37.528;2023-06-14T07:34:08;5.30;;;2.33;;
35434;SDS011;21556;55.782;37.528;2023-06-14T07:36:35;17.27;;;3.15;;
35434;SDS011;21556;55.782;37.528;2023-06-14T07:39:02;6.15;;;2.90;;
35434;SDS011;21556;55.782;37.528;2023-06-14T07:41:29;6.87;;;2.87;;
35434;SDS011;21556;55.782;37.528;2023-06-14T07:43:55;4.70;;;2.40;;
35434;SDS011;21556;55.782;37.528;2023-06-14T07:46:21;8.75;;;3.20;;
35434;SDS011;21556;55.782;37.528;2023-06-14T07:48:48;4.75;;;2.70;;
35434;SDS011;21556;55.782;37.528;2023-06-14T07:51:17;8.60;;;2.72;;
35434;SDS011;21556;55.782;37.528;2023-06-14T07:53:43;5.65;;;2.97;;
35434;SDS011;21556;55.782;37.528;2023-06-14T07:56:09;5.80;;;2.92;;
35434;SDS011;21556;55.782;37.528;2023-06-14T07:58:35;6.55;;;3.08;;
35434;SDS011;21556;55.782;37.528;2023-06-14T08:01:01;7.57;;;2.63;;
35434;SDS011;21556;55.782;37.528;2023-06-14T08:03:40;3.15;;;2.60;;
35434;SDS011;21556;55.782;37.528;2023-06-14T08:06:06;7.57;;;3.00;;
35434;SDS011;21556;55.782;37.528;2023-06-14T08:08:33;6.50;;;3.00;;
35434;SDS011;21556;55.782;37.528;2023-06-14T08:11:11;7.55;;;3.33;;
35434;SDS011;21556;55.782;37.528;2023-06-14T08:13:37;9.57;;;2.95;;
35434;SDS011;21556;55.782;37.528;2023-06-14T08:16:03;6.78;;;3.20;;
35434;SDS011;21556;55.782;37.528;2023-06-14T08:18:30;4.57;;;3.10;;
35434;SDS011;21556;55.782;37.528;2023-06-14T08:20:56;7.43;;;2.72;;
35434;SDS011;21556;55.782;37.528;2023-06-14T08:23:23;3.40;;;2.67;;
35434;SDS011;21556;55.782;37.528;2023-06-14T08:25:49;5.43;;;3.17;;
35434;SDS011;21556;55.782;37.528;2023-06-14T08:28:15;4.47;;;3.17;;
35434;SDS011;21556;55.782;37.528;2023-06-14T08:30:41;5.18;;;3.10;;
35434;SDS011;21556;55.782;37.528;2023-06-14T08:33:08;4.63;;;3.13;;
35434;SDS011;21556;55.782;37.528;2023-06-14T08:35:35;6.13;;;2.73;;
35434;SDS011;21556;55.782;37.528;2023-06-14T08:38:02;6.28;;;3.00;;
35434;SDS011;21556;55.782;37.528;2023-06-14T08:40:29;4.03;;;3.13;;
35434;SDS011;21556;55.782;37.528;2023-06-14T08:42:56;7.80;;;3.38;;
35434;SDS011;21556;55.782;37.528;2023-06-14T08:45:23;5.50;;;3.13;;
35434;SDS011;21556;55.782;37.528;2023-06-14T08:47:50;13.80;;;3.75;;
35434;SDS011;21556;55.782;37.528;2023-06-14T08:50:23;9.93;;;3.70;;
35434;SDS011;21556;55.782;37.528;2023-06-14T08:52:53;14.35;;;4.07;;
35434;SDS011;21556;55.782;37.528;2023-06-14T08:55:23;8.50;;;3.03;;
35434;SDS011;21556;55.782;37.528;2023-06-14T08:57:56;4.47;;;3.30;;
35434;SDS011;21556;55.782;37.528;2023-06-14T09:00:24;9.75;;;3.28;;
35434;SDS011;21556;55.782;37.528;2023-06-14T09:02:53;6.47;;;3.47;;
35434;SDS011;21556;55.782;37.528;2023-06-14T09:05:26;5.72;;;3.40;;
35434;SDS011;21556;55.782;37.528;2023-06-14T09:07:53;6.47;;;3.60;;
35434;SDS011;21556;55.782;37.528;2023-06-14T09:10:20;5.20;;;2.95;;
35434;SDS011;21556;55.782;37.528;2023-06-14T09:12:47;9.73;;;3.47;;
35434;SDS011;21556;55.782;37.528;2023-06-14T09:15:13;6.85;;;3.20;;
35434;SDS011;21556;55.782;37.528;2023-06-14T09:17:40;5.35;;;3.45;;
35434;SDS011;21556;55.782;37.528;2023-06-14T09:20:07;4.88;;;3.08;;
35434;SDS011;21556;55.782;37.528;2023-06-14T09:22:43;6.05;;;3.17;;
35434;SDS011;21556;55.782;37.528;2023-06-14T09:25:10;7.53;;;3.83;;
35434;SDS011;21556;55.782;37.528;2023-06-14T09:27:38;5.85;;;3.67;;
35434;SDS011;21556;55.782;37.528;2023-06-14T09:30:08;6.45;;;3.22;;
35434;SDS011;21556;55.782;37.528;2023-06-14T09:32:38;5.72;;;3.03;;
35434;SDS011;21556;55.782;37.528;2023-06-14T09:35:06;3.70;;;2.88;;
35434;SDS011;21556;55.782;37.528;2023-06-14T09:37:33;4.25;;;2.83;;
35434;SDS011;21556;55.782;37.528;2023-06-14T09:40:00;3.35;;;2.85;;
35434;SDS011;21556;55.782;37.528;2023-06-14T09:42:26;3.70;;;2.83;;
35434;SDS011;21556;55.782;37.528;2023-06-14T09:44:54;3.92;;;2.70;;
35434;SDS011;21556;55.782;37.528;2023-06-14T09:47:22;7.60;;;3.42;;
35434;SDS011;21556;55.782;37.528;2023-06-14T09:49:50;5.20;;;3.42;;
35434;SDS011;21556;55.782;37.528;2023-06-14T09:52:17;6.35;;;3.08;;
35434;SDS011;21556;55.782;37.528;2023-06-14T09:54:46;3.42;;;3.03;;
35434;SDS011;21556;55.782;37.528;2023-06-14T09:57:13;3.28;;;2.83;;
35434;SDS011;21556;55.782;37.528;2023-06-14T09:59:52;3.72;;;2.85;;
35434;SDS011;21556;55.782;37.528;2023-06-14T10:02:29;6.57;;;2.78;;
35434;SDS011;21556;55.782;37.528;2023-06-14T10:05:09;5.88;;;3.15;;
35434;SDS011;21556;55.782;37.528;2023-06-14T10:10:06;8.10;;;3.42;;
35434;SDS011;21556;55.782;37.528;2023-06-14T10:12:32;5.03;;;2.93;;
35434;SDS011;21556;55.782;37.528;2023-06-14T10:15:08;5.55;;;3.22;;
35434;SDS011;21556;55.782;37.528;2023-06-14T10:20:26;3.80;;;3.15;;
35434;SDS011;21556;55.782;37.528;2023-06-14T10:23:10;5.70;;;3.60;;
35434;SDS011;21556;55.782;37.528;2023-06-14T10:25:58;6.55;;;2.95;;
35434;SDS011;21556;55.782;37.528;2023-06-14T10:28:25;6.13;;;3.47;;
35434;SDS011;21556;55.782;37.528;2023-06-14T10:33:32;5.35;;;3.15;;
35434;SDS011;21556;55.782;37.528;2023-06-14T10:39:04;5.63;;;3.50;;
35434;SDS011;21556;55.782;37.528;2023-06-14T10:41:37;7.90;;;3.33;;
35434;SDS011;21556;55.782;37.528;2023-06-14T10:46:38;4.90;;;3.15;;
35434;SDS011;21556;55.782;37.528;2023-06-14T10:52:17;7.18;;;3.60;;
35434;SDS011;21556;55.782;37.528;2023-06-14T10:57:24;4.40;;;3.28;;
35434;SDS011;21556;55.782;37.528;2023-06-14T10:59:50;5.00;;;3.10;;
35434;SDS011;21556;55.782;37.528;2023-06-14T11:10:37;6.03;;;3.00;;
35434;SDS011;21556;55.782;37.528;2023-06-14T11:13:05;4.75;;;3.20;;
35434;SDS011;21556;55.782;37.528;2023-06-14T11:15:35;3.65;;;3.15;;
35434;SDS011;21556;55.782;37.528;2023-06-14T11:18:02;5.00;;;3.40;;
35434;SDS011;21556;55.782;37.528;2023-06-14T11:20:36;4.40;;;3.30;;
35434;SDS011;21556;55.782;37.528;2023-06-14T11:23:03;5.22;;;3.70;;
35434;SDS011;21556;55.782;37.528;2023-06-14T11:25:30;5.38;;;3.10;;
35434;SDS011;21556;55.782;37.528;2023-06-14T11:27:56;7.45;;;3.38;;
35434;SDS011;21556;55.782;37.528;2023-06-14T11:30:23;3.92;;;3.17;;
35434;SDS011;21556;55.782;37.528;2023-06-14T11:32:51;6.18;;;3.28;;
35434;SDS011;21556;55.782;37.528;2023-06-14T11:35:18;5.65;;;3.20;;
35434;SDS011;21556;55.782;37.528;2023-06-14T11:37:48;5.07;;;3.25;;
35434;SDS011;21556;55.782;37.528;2023-06-14T11:40:18;9.55;;;3.90;;
35434;SDS011;21556;55.782;37.528;2023-06-14T11:42:44;7.72;;;3.08;;
35434;SDS011;21556;55.782;37.528;2023-06-14T11:45:10;6.20;;;3.03;;
35434;SDS011;21556;55.782;37.528;2023-06-14T11:47:38;5.93;;;2.97;;
35434;SDS011;21556;55.782;37.528;2023-06-14T11:52:32;7.82;;;3.28;;
35434;SDS011;21556;55.782;37.528;2023-06-14T11:54:58;6.05;;;3.42;;
35434;SDS011;21556;55.782;37.528;2023-06-14T11:57:25;5.60;;;3.03;;
35434;SDS011;21556;55.782;37.528;2023-06-14T11:59:51;5.70;;;3.45;;
35434;SDS011;21556;55.782;37.528;2023-06-14T12:02:18;6.13;;;3.05;;
35434;SDS011;21556;55.782;37.528;2023-06-14T12:04:48;7.10;;;2.80;;
35434;SDS011;21556;55.782;37.528;2023-06-14T12:07:15;7.18;;;3.13;;
35434;SDS011;21556;55.782;37.528;2023-06-14T12:12:24;5.18;;;3.03;;
35434;SDS011;21556;55.782;37.528;2023-06-14T12:14:51;3.75;;;2.85;;
35434;SDS011;21556;55.782;37.528;2023-06-14T12:17:18;3.35;;;3.05;;
35434;SDS011;21556;55.782;37.528;2023-06-14T12:19:45;4.43;;;3.35;;
35434;SDS011;21556;55.782;37.528;2023-06-14T12:22:13;5.45;;;3.10;;
35434;SDS011;21556;55.782;37.528;2023-06-14T12:24:39;6.20;;;3.28;;
35434;SDS011;21556;55.782;37.528;2023-06-14T12:27:08;7.88;;;2.88;;
35434;SDS011;21556;55.782;37.528;2023-06-14T12:29:34;3.85;;;2.80;;
35434;SDS011;21556;55.782;37.528;2023-06-14T12:32:01;3.55;;;2.97;;
35434;SDS011;21556;55.782;37.528;2023-06-14T12:34:27;4.80;;;3.10;;
35434;SDS011;21556;55.782;37.528;2023-06-14T12:36:53;3.65;;;2.70;;
35434;SDS011;21556;55.782;37.528;2023-06-14T12:39:20;4.82;;;2.67;;
35434;SDS011;21556;55.782;37.528;2023-06-14T12:41:50;5.97;;;2.80;;
35434;SDS011;21556;55.782;37.528;2023-06-14T12:44:16;3.92;;;2.83;;
35434;SDS011;21556;55.782;37.528;2023-06-14T12:46:42;8.10;;;3.58;;
35434;SDS011;21556;55.782;37.528;2023-06-14T12:49:10;8.68;;;3.50;;
35434;SDS011;21556;55.782;37.528;2023-06-14T12:51:37;5.75;;;3.40;;
35434;SDS011;21556;55.782;37.528;2023-06-14T12:54:05;5.63;;;2.60;;
35434;SDS011;21556;55.782;37.528;2023-06-14T12:56:31;4.72;;;2.67;;
35434;SDS011;21556;55.782;37.528;2023-06-14T12:58:58;4.10;;;3.28;;
35434;SDS011;21556;55.782;37.528;2023-06-14T13:01:24;5.13;;;2.72;;
35434;SDS011;21556;55.782;37.528;2023-06-14T13:03:50;5.63;;;3.13;;
35434;SDS011;21556;55.782;37.528;2023-06-14T13:06:22;5.35;;;3.05;;
35434;SDS011;21556;55.782;37.528;2023-06-14T13:08:48;4.72;;;2.63;;
35434;SDS011;21556;55.782;37.528;2023-06-14T13:11:14;5.93;;;2.92;;
35434;SDS011;21556;55.782;37.528;2023-06-14T13:13:46;8.02;;;3.30;;
35434;SDS011;21556;55.782;37.528;2023-06-14T13:16:12;3.22;;;2.63;;
35434;SDS011;21556;55.782;37.528;2023-06-14T13:18:42;7.50;;;3.08;;
35434;SDS011;21556;55.782;37.528;2023-06-14T13:21:08;4.57;;;3.30;;
35434;SDS011;21556;55.782;37.528;2023-06-14T13:23:34;7.85;;;2.88;;
35434;SDS011;21556;55.782;37.528;2023-06-14T13:26:00;4.97;;;3.03;;
35434;SDS011;21556;55.782;37.528;2023-06-14T13:28:26;3.25;;;2.90;;
35434;SDS011;21556;55.782;37.528;2023-06-14T13:30:53;7.82;;;3.22;;
35434;SDS011;21556;55.782;37.528;2023-06-14T13:33:21;3.72;;;2.50;;
35434;SDS011;21556;55.782;37.528;2023-06-14T13:35:47;11.10;;;3.53;;
35434;SDS011;21556;55.782;37.528;2023-06-14T13:38:14;5.13;;;2.97;;
35434;SDS011;21556;55.782;37.528;2023-06-14T13:40:40;5.93;;;3.00;;
35434;SDS011;21556;55.782;37.528;2023-06-14T13:43:09;5.53;;;3.70;;
35434;SDS011;21556;55.782;37.528;2023-06-14T13:45:36;6.40;;;3.35;;
35434;SDS011;21556;55.782;37.528;2023-06-14T13:48:04;4.05;;;3.25;;
35434;SDS011;21556;55.782;37.528;2023-06-14T13:50:31;4.85;;;2.90;;
35434;SDS011;21556;55.782;37.528;2023-06-14T13:52:57;4.22;;;3.38;;
35434;SDS011;21556;55.782;37.528;2023-06-14T13:55:22;6.72;;;2.95;;
35434;SDS011;21556;55.782;37.528;2023-06-14T13:57:48;6.07;;;3.00;;
35434;SDS011;21556;55.782;37.528;2023-06-14T14:00:14;9.63;;;3.00;;
35434;SDS011;21556;55.782;37.528;2023-06-14T14:02:41;12.02;;;4.07;;
35434;SDS011;21556;55.782;37.528;2023-06-14T14:05:08;5.60;;;2.70;;
35434;SDS011;21556;55.782;37.528;2023-06-14T14:07:34;4.70;;;2.70;;
35434;SDS011;21556;55.782;37.528;2023-06-14T14:10:02;7.75;;;3.15;;
35434;SDS011;21556;55.782;37.528;2023-06-14T14:12:30;4.03;;;2.88;;
35434;SDS011;21556;55.782;37.528;2023-06-14T14:14:56;4.97;;;3.03;;
35434;SDS011;21556;55.782;37.528;2023-06-14T14:17:23;4.88;;;3.08;;
35434;SDS011;21556;55.782;37.528;2023-06-14T14:19:49;6.05;;;2.88;;
35434;SDS011;21556;55.782;37.528;2023-06-14T14:22:15;6.78;;;2.70;;
35434;SDS011;21556;55.782;37.528;2023-06-14T14:24:41;3.22;;;2.67;;
35434;SDS011;21556;55.782;37.528;2023-06-14T14:27:07;7.68;;;3.00;;
35434;SDS011;21556;55.782;37.528;2023-06-14T14:29:33;3.72;;;2.83;;
35434;SDS011;21556;55.782;37.528;2023-06-14T14:32:01;9.45;;;3.13;;
35434;SDS011;21556;55.782;37.528;2023-06-14T14:34:27;6.10;;;3.20;;
35434;SDS011;21556;55.782;37.528;2023-06-14T14:36:53;7.45;;;3.22;;
35434;SDS011;21556;55.782;37.528;2023-06-14T14:39:20;5.40;;;2.72;;
35434;SDS011;21556;55.782;37.528;2023-06-14T14:41:46;8.00;;;2.97;;
35434;SDS011;21556;55.782;37.528;2023-06-14T14:44:12;3.90;;;2.80;;
35434;SDS011;21556;55.782;37.528;2023-06-14T14:46:38;6.32;;;3.20;;
35434;SDS011;21556;55.782;37.528;2023-06-14T14:49:04;7.40;;;4.63;;
35434;SDS011;21556;55.782;37.528;2023-06-14T14:51:30;4.75;;;3.08;;
35434;SDS011;21556;55.782;37.528;2023-06-14T14:53:56;3.78;;;2.50;;
35434;SDS011;21556;55.782;37.528;2023-06-14T14:56:22;5.07;;;2.50;;
35434;SDS011;21556;55.782;37.528;2023-06-14T14:58:48;5.70;;;3.08;;
35434;SDS011;21556;55.782;37.528;2023-06-14T15:01:15;4.88;;;2.80;;
35434;SDS011;21556;55.782;37.528;2023-06-14T15:03:41;2.97;;;2.58;;
35434;SDS011;21556;55.782;37.528;2023-06-14T15:06:06;4.05;;;2.78;;
35434;SDS011;21556;55.782;37.528;2023-06-14T15:08:33;6.53;;;2.70;;
35434;SDS011;21556;55.782;37.528;2023-06-14T15:10:59;6.13;;;2.95;;
35434;SDS011;21556;55.782;37.528;2023-06-14T15:13:28;10.20;;;3.17;;
35434;SDS011;21556;55.782;37.528;2023-06-14T15:15:54;8.23;;;3.20;;
35434;SDS011;21556;55.782;37.528;2023-06-14T15:18:20;8.38;;;3.40;;